createdAt,value
2024-05-09T00:00:49.769Z,22.04
2024-05-09T00:01:49.748Z,22.07
2024-05-09T00:02:49.694Z,22.04
2024-05-09T00:03:49.747Z,22.02
2024-05-09T00:04:49.805Z,22.09
2024-05-09T00:05:49.698Z,22.09
2024-05-09T00:06:49.681Z,22.11
2024-05-09T00:07:49.678Z,22.08
2024-05-09T00:08:49.692Z,22.11
2024-05-09T00:09:49.656Z,22.16
2024-05-09T00:10:49.780Z,22.20
2024-05-09T00:11:49.775Z,22.12
2024-05-09T00:12:49.652Z,22.22
2024-05-09T00:13:49.695Z,22.27
2024-05-09T00:14:49.640Z,22.12
2024-05-09T00:15:49.643Z,22.12
2024-05-09T00:16:49.654Z,22.14
2024-05-09T00:17:49.933Z,22.15
2024-05-09T00:18:49.751Z,22.09
2024-05-09T00:19:49.643Z,22.08
2024-05-09T00:20:49.700Z,22.11
2024-05-09T00:21:49.616Z,22.09
2024-05-09T00:22:49.639Z,22.15
2024-05-09T00:23:49.609Z,22.09
2024-05-09T00:24:49.603Z,22.18
2024-05-09T00:25:49.612Z,22.12
2024-05-09T00:26:49.596Z,22.16
2024-05-09T00:27:49.591Z,22.14
2024-05-09T00:28:49.599Z,22.24
2024-05-09T00:29:49.591Z,22.22
2024-05-09T00:30:49.592Z,22.22
2024-05-09T00:31:49.753Z,22.23
2024-05-09T00:32:49.673Z,22.09
2024-05-09T00:33:49.692Z,22.15
2024-05-09T00:34:49.613Z,22.20
2024-05-09T00:35:49.571Z,22.09
2024-05-09T00:36:49.554Z,22.12
2024-05-09T00:37:49.577Z,22.22
2024-05-09T00:38:49.550Z,22.22
2024-05-09T00:39:49.539Z,22.15
2024-05-09T00:40:49.610Z,22.18
2024-05-09T00:41:49.596Z,22.16
2024-05-09T00:42:49.542Z,22.16
2024-05-09T00:43:49.630Z,22.20
2024-05-09T00:44:49.530Z,22.16
2024-05-09T00:45:49.534Z,22.23
2024-05-09T00:46:49.555Z,22.09
2024-05-09T00:47:49.760Z,22.11
2024-05-09T00:48:49.596Z,22.09
2024-05-09T00:49:49.578Z,22.09
2024-05-09T00:50:49.598Z,22.20
2024-05-09T00:51:49.509Z,22.11
2024-05-09T00:52:49.525Z,22.09
2024-05-09T00:53:49.499Z,22.12
2024-05-09T00:54:49.489Z,22.08
2024-05-09T00:55:49.503Z,22.11
2024-05-09T00:56:49.486Z,22.09
2024-05-09T00:57:49.474Z,22.09
2024-05-09T00:58:49.495Z,22.08
2024-05-09T00:59:49.464Z,22.05
2024-05-09T01:00:56.590Z,22.05
2024-05-09T01:01:49.570Z,22.04
2024-05-09T01:02:49.600Z,22.07
2024-05-09T01:03:51.306Z,22.09
2024-05-09T01:04:49.726Z,21.96
2024-05-09T01:05:56.632Z,22.04
2024-05-09T01:06:49.447Z,22.04
2024-05-09T01:07:49.435Z,21.93
2024-05-09T01:08:49.437Z,21.92
2024-05-09T01:09:49.419Z,22.04
2024-05-09T01:10:49.558Z,21.97
2024-05-09T01:11:49.542Z,21.97
2024-05-09T01:12:49.421Z,21.94
2024-05-09T01:13:49.450Z,21.93
2024-05-09T01:14:49.399Z,21.93
2024-05-09T01:15:49.399Z,21.89
2024-05-09T01:16:49.456Z,21.93
2024-05-09T01:17:49.615Z,21.92
2024-05-09T01:18:49.478Z,21.93
2024-05-09T01:19:49.444Z,21.90
2024-05-09T01:20:49.405Z,21.83
2024-05-09T01:21:49.369Z,21.86
2024-05-09T01:22:49.438Z,21.86
2024-05-09T01:23:49.367Z,21.82
2024-05-09T01:24:49.353Z,21.76
2024-05-09T01:25:49.414Z,21.83
2024-05-09T01:26:49.345Z,21.76
2024-05-09T01:27:49.340Z,21.77
2024-05-09T01:28:49.368Z,21.74
2024-05-09T01:29:49.346Z,21.74
2024-05-09T01:30:49.364Z,21.74
2024-05-09T01:31:49.435Z,21.71
2024-05-09T01:32:49.629Z,21.73
2024-05-09T01:33:49.420Z,21.76
2024-05-09T01:34:49.362Z,21.67
2024-05-09T01:35:49.327Z,21.70
2024-05-09T01:36:49.313Z,21.61
2024-05-09T01:37:49.344Z,21.62
2024-05-09T01:38:49.300Z,21.64
2024-05-09T01:39:49.298Z,21.68
2024-05-09T01:40:49.337Z,21.59
2024-05-09T01:41:49.289Z,21.61
2024-05-09T01:42:49.297Z,21.70
2024-05-09T01:43:49.284Z,21.59
2024-05-09T01:44:49.287Z,21.52
2024-05-09T01:45:49.282Z,21.56
2024-05-09T01:46:49.295Z,21.59
2024-05-09T01:47:49.391Z,21.56
2024-05-09T01:48:49.431Z,21.51
2024-05-09T01:49:49.301Z,21.58
2024-05-09T01:50:49.291Z,21.61
2024-05-09T01:51:49.264Z,21.59
2024-05-09T01:52:49.256Z,21.52
2024-05-09T01:53:49.239Z,21.59
2024-05-09T01:54:49.238Z,21.53
2024-05-09T01:55:49.241Z,21.61
2024-05-09T01:56:49.218Z,21.64
2024-05-09T01:57:49.228Z,21.59
2024-05-09T01:58:49.271Z,21.66
2024-05-09T01:59:49.235Z,21.61
2024-05-09T02:00:49.228Z,21.62
2024-05-09T02:01:56.679Z,21.64
2024-05-09T02:02:49.276Z,21.68
2024-05-09T02:03:49.434Z,21.59
2024-05-09T02:04:49.275Z,21.74
2024-05-09T02:05:49.289Z,21.68
2024-05-09T02:06:49.189Z,21.67
2024-05-09T02:07:49.244Z,21.71
2024-05-09T02:08:49.163Z,21.70
2024-05-09T02:09:49.163Z,21.73
2024-05-09T02:10:49.668Z,21.71
2024-05-09T02:11:49.254Z,21.83
2024-05-09T02:12:49.150Z,21.78
2024-05-09T02:13:49.161Z,21.80
2024-05-09T02:14:49.142Z,21.86
2024-05-09T02:15:49.137Z,21.83
2024-05-09T02:16:49.190Z,21.92
2024-05-09T02:17:49.338Z,21.90
2024-05-09T02:18:49.335Z,21.89
2024-05-09T02:19:49.147Z,21.89
2024-05-09T02:20:49.141Z,21.92
2024-05-09T02:21:49.113Z,21.97
2024-05-09T02:22:49.123Z,21.94
2024-05-09T02:23:49.119Z,21.92
2024-05-09T02:24:49.103Z,21.97
2024-05-09T02:25:49.114Z,22.00
2024-05-09T02:26:49.100Z,21.97
2024-05-09T02:27:49.091Z,22.00
2024-05-09T02:28:49.158Z,21.97
2024-05-09T02:29:49.085Z,22.07
2024-05-09T02:30:49.086Z,22.07
2024-05-09T02:31:49.140Z,22.14
2024-05-09T02:32:49.216Z,22.14
2024-05-09T02:33:49.366Z,22.09
2024-05-09T02:34:49.076Z,22.11
2024-05-09T02:35:49.066Z,22.14
2024-05-09T02:36:49.052Z,22.11
2024-05-09T02:37:49.098Z,22.09
2024-05-09T02:38:49.069Z,22.09
2024-05-09T02:39:49.043Z,22.07
2024-05-09T02:40:49.078Z,22.12
2024-05-09T02:41:49.028Z,22.09
2024-05-09T02:42:49.029Z,22.15
2024-05-09T02:43:49.057Z,22.20
2024-05-09T02:44:49.028Z,22.24
2024-05-09T02:45:49.019Z,22.14
2024-05-09T02:46:49.062Z,22.23
2024-05-09T02:47:49.255Z,22.20
2024-05-09T02:48:49.060Z,22.14
2024-05-09T02:49:49.100Z,22.20
2024-05-09T02:50:49.040Z,22.08
2024-05-09T02:51:48.992Z,22.23
2024-05-09T02:52:48.991Z,22.26
2024-05-09T02:53:49.008Z,22.16
2024-05-09T02:54:48.990Z,22.15
2024-05-09T02:55:49.019Z,22.14
2024-05-09T02:56:48.983Z,22.14
2024-05-09T02:57:48.988Z,22.14
2024-05-09T02:58:48.994Z,22.09
2024-05-09T02:59:48.962Z,22.15
2024-05-09T03:00:49.026Z,22.22
2024-05-09T03:01:49.082Z,22.26
2024-05-09T03:02:49.158Z,22.27
2024-05-09T03:03:49.087Z,22.15
2024-05-09T03:04:49.133Z,22.15
2024-05-09T03:05:48.976Z,22.27
2024-05-09T03:06:48.944Z,22.18
2024-05-09T03:07:48.975Z,22.15
2024-05-09T03:08:48.936Z,22.23
2024-05-09T03:09:48.948Z,22.12
2024-05-09T03:10:48.945Z,22.15
2024-05-09T03:11:49.010Z,22.15
2024-05-09T03:12:48.911Z,22.22
2024-05-09T03:13:48.969Z,22.22
2024-05-09T03:14:48.918Z,22.27
2024-05-09T03:15:48.906Z,22.16
2024-05-09T03:16:48.968Z,22.24
2024-05-09T03:17:49.057Z,22.26
2024-05-09T03:18:49.001Z,22.14
2024-05-09T03:19:48.948Z,22.26
2024-05-09T03:20:48.978Z,22.20
2024-05-09T03:21:48.879Z,22.26
2024-05-09T03:22:48.936Z,22.14
2024-05-09T03:23:48.899Z,22.20
2024-05-09T03:24:48.867Z,22.15
2024-05-09T03:25:48.913Z,22.20
2024-05-09T03:26:48.871Z,22.14
2024-05-09T03:27:48.854Z,22.12
2024-05-09T03:28:48.946Z,22.09
2024-05-09T03:29:48.852Z,22.12
2024-05-09T03:30:48.841Z,22.11
2024-05-09T03:31:48.965Z,22.09
2024-05-09T03:32:49.134Z,22.12
2024-05-09T03:33:49.053Z,22.07
2024-05-09T03:34:48.875Z,22.14
2024-05-09T03:35:49.594Z,22.15
2024-05-09T03:36:48.817Z,22.15
2024-05-09T03:37:48.858Z,22.09
2024-05-09T03:38:48.812Z,22.12
2024-05-09T03:39:48.981Z,22.11
2024-05-09T03:40:49.639Z,22.09
2024-05-09T03:41:48.795Z,22.11
2024-05-09T03:42:48.789Z,22.11
2024-05-09T03:43:48.803Z,22.12
2024-05-09T03:44:48.807Z,22.09
2024-05-09T03:45:48.798Z,22.12
2024-05-09T03:46:48.822Z,22.11
2024-05-09T03:47:49.121Z,22.12
2024-05-09T03:48:48.832Z,22.07
2024-05-09T03:49:48.819Z,22.07
2024-05-09T03:50:48.835Z,22.11
2024-05-09T03:51:48.770Z,22.07
2024-05-09T03:52:48.831Z,22.09
2024-05-09T03:53:48.845Z,22.09
2024-05-09T03:54:48.755Z,22.11
2024-05-09T03:55:48.848Z,22.09
2024-05-09T03:56:48.749Z,22.08
2024-05-09T03:57:48.729Z,22.04
2024-05-09T03:58:48.743Z,22.07
2024-05-09T03:59:48.719Z,22.05
2024-05-09T04:00:48.775Z,22.00
2024-05-09T04:01:48.745Z,22.07
2024-05-09T04:02:48.779Z,22.07
2024-05-09T04:03:48.807Z,22.07
2024-05-09T04:04:48.817Z,22.09
2024-05-09T04:05:48.738Z,22.07
2024-05-09T04:06:48.696Z,22.07
2024-05-09T04:07:48.750Z,22.07
2024-05-09T04:08:48.743Z,22.05
2024-05-09T04:09:48.681Z,22.07
2024-05-09T04:10:48.851Z,22.11
2024-05-09T04:11:48.744Z,22.05
2024-05-09T04:12:48.676Z,22.07
2024-05-09T04:13:48.721Z,22.14
2024-05-09T04:14:48.661Z,22.04
2024-05-09T04:15:48.657Z,22.09
2024-05-09T04:16:48.669Z,22.11
2024-05-09T04:17:49.492Z,22.04
2024-05-09T04:18:48.712Z,22.11
2024-05-09T04:19:48.679Z,22.05
2024-05-09T04:20:48.691Z,22.11
2024-05-09T04:21:48.639Z,22.14
2024-05-09T04:22:48.670Z,22.08
2024-05-09T04:23:48.644Z,22.02
2024-05-09T04:24:48.619Z,22.02
2024-05-09T04:25:48.688Z,22.08
2024-05-09T04:26:48.767Z,22.11
2024-05-09T04:27:48.606Z,22.02
2024-05-09T04:28:48.679Z,22.14
2024-05-09T04:29:48.603Z,22.11
2024-05-09T04:30:48.609Z,22.11
2024-05-09T04:31:48.620Z,22.05
2024-05-09T04:32:48.742Z,22.05
2024-05-09T04:33:48.713Z,22.04
2024-05-09T04:34:48.607Z,22.02
2024-05-09T04:35:48.580Z,22.07
2024-05-09T04:36:48.570Z,22.11
2024-05-09T04:37:48.614Z,22.11
2024-05-09T04:50:35.136Z,22.02
2024-05-09T04:51:26.899Z,21.93
2024-05-09T04:52:26.900Z,21.90
2024-05-09T04:53:26.915Z,21.93
2024-05-09T04:54:34.139Z,21.92
2024-05-09T04:55:26.882Z,21.78
2024-05-09T04:56:26.896Z,21.89
2024-05-09T04:57:26.865Z,21.86
2024-05-09T04:58:26.862Z,21.78
2024-05-09T04:59:27.024Z,21.85
2024-05-09T05:00:32.666Z,21.85
2024-05-09T05:01:26.902Z,21.83
2024-05-09T05:02:26.931Z,21.83
2024-05-09T05:03:26.982Z,21.77
2024-05-09T05:04:27.000Z,21.86
2024-05-09T05:05:26.906Z,21.85
2024-05-09T05:06:26.824Z,21.83
2024-05-09T05:07:26.826Z,21.83
2024-05-09T05:08:26.871Z,21.83
2024-05-09T05:09:26.816Z,21.83
2024-05-09T05:10:33.581Z,21.83
2024-05-09T05:11:26.875Z,21.85
2024-05-09T05:12:26.849Z,21.77
2024-05-09T05:13:26.796Z,21.77
2024-05-09T05:14:26.944Z,21.77
2024-05-09T05:15:26.779Z,21.83
2024-05-09T05:16:26.778Z,21.86
2024-05-09T05:17:26.842Z,21.86
2024-05-09T05:18:27.389Z,21.83
2024-05-09T05:19:26.864Z,21.76
2024-05-09T05:20:32.894Z,21.82
2024-05-09T05:21:27.046Z,21.89
2024-05-09T05:22:26.756Z,21.78
2024-05-09T05:23:26.832Z,21.92
2024-05-09T05:24:26.743Z,21.83
2024-05-09T05:25:26.741Z,21.90
2024-05-09T05:26:26.742Z,21.80
2024-05-09T05:27:26.725Z,21.93
2024-05-09T05:28:26.733Z,21.89
2024-05-09T05:29:26.753Z,21.86
2024-05-09T05:30:32.496Z,21.90
2024-05-09T05:31:26.796Z,21.93
2024-05-09T05:32:26.878Z,21.89
2024-05-09T05:33:27.034Z,21.90
2024-05-09T05:34:26.704Z,21.89
2024-05-09T05:35:26.955Z,21.92
2024-05-09T05:36:26.698Z,21.89
2024-05-09T05:37:26.690Z,21.93
2024-05-09T05:38:28.380Z,21.97
2024-05-09T05:39:26.679Z,22.02
2024-05-09T05:40:33.352Z,21.97
2024-05-09T05:41:26.713Z,21.93
2024-05-09T05:42:26.662Z,21.99
2024-05-09T05:43:27.575Z,21.99
2024-05-09T05:44:26.768Z,22.00
2024-05-09T05:45:26.658Z,22.02
2024-05-09T05:46:26.646Z,22.07
2024-05-09T05:47:26.802Z,22.14
2024-05-09T05:48:26.789Z,22.11
2024-05-09T05:49:26.890Z,22.09
2024-05-09T05:50:32.606Z,22.09
2024-05-09T05:51:26.647Z,22.24
2024-05-09T05:52:26.625Z,22.26
2024-05-09T05:53:26.640Z,22.23
2024-05-09T05:54:26.627Z,22.23
2024-05-09T05:55:26.619Z,22.23
2024-05-09T05:56:26.727Z,22.18
2024-05-09T05:57:26.606Z,22.31
2024-05-09T05:58:26.598Z,22.31
2024-05-09T05:59:26.658Z,22.34
2024-05-09T06:00:34.361Z,22.42
2024-05-09T06:01:26.696Z,22.44
2024-05-09T06:02:26.734Z,22.44
2024-05-09T06:03:26.622Z,22.49
2024-05-09T06:04:26.602Z,22.44
2024-05-09T06:05:27.744Z,22.54
2024-05-09T06:06:26.586Z,22.63
2024-05-09T06:07:26.567Z,22.60
2024-05-09T06:08:30.157Z,22.69
2024-05-09T06:09:26.562Z,22.75
2024-05-09T06:10:35.030Z,22.70
2024-05-09T06:11:26.651Z,22.84
2024-05-09T06:12:26.644Z,22.84
2024-05-09T06:13:26.547Z,22.84
2024-05-09T06:14:26.746Z,22.89
2024-05-09T06:15:26.549Z,22.88
2024-05-09T06:16:26.541Z,22.97
2024-05-09T06:17:26.746Z,23.06
2024-05-09T06:18:26.817Z,23.03
2024-05-09T06:19:26.770Z,23.12
2024-05-09T06:20:34.381Z,23.14
2024-05-09T06:21:26.541Z,23.09
2024-05-09T06:22:26.524Z,23.15
2024-05-09T06:23:26.570Z,23.16
2024-05-09T06:24:26.511Z,23.25
2024-05-09T06:25:26.508Z,23.24
2024-05-09T06:26:26.588Z,23.28
2024-05-09T06:27:26.507Z,23.37
2024-05-09T06:28:26.500Z,23.44
2024-05-09T06:29:26.681Z,23.41
2024-05-09T06:30:35.190Z,23.45
2024-05-09T06:31:26.499Z,23.47
2024-05-09T06:32:26.602Z,23.42
2024-05-09T06:33:26.849Z,23.53
2024-05-09T06:34:26.670Z,23.56
2024-05-09T06:35:26.570Z,23.57
2024-05-09T06:36:26.487Z,23.60
2024-05-09T06:37:26.491Z,23.67
2024-05-09T06:38:26.496Z,23.70
2024-05-09T06:39:26.483Z,23.75
2024-05-09T06:40:35.747Z,23.77
2024-05-09T06:41:26.609Z,23.78
2024-05-09T06:42:26.565Z,23.81
2024-05-09T06:43:26.463Z,23.90
2024-05-09T06:44:26.547Z,23.90
2024-05-09T06:45:26.452Z,23.90
2024-05-09T06:46:26.450Z,23.93
2024-05-09T06:47:26.530Z,24.00
2024-05-09T06:48:26.672Z,24.07
2024-05-09T06:49:26.616Z,24.11
2024-05-09T06:50:28.419Z,24.09
2024-05-09T06:51:26.444Z,24.18
2024-05-09T06:52:26.454Z,24.18
2024-05-09T06:53:26.535Z,24.24
2024-05-09T06:54:26.435Z,24.24
2024-05-09T06:55:26.434Z,24.26
2024-05-09T06:56:26.621Z,24.26
2024-05-09T06:57:26.427Z,24.22
2024-05-09T06:58:26.459Z,24.33
2024-05-09T06:59:26.458Z,24.42
2024-05-09T07:00:35.155Z,24.40
2024-05-09T07:01:26.531Z,24.33
2024-05-09T07:02:26.531Z,24.40
2024-05-09T07:03:26.752Z,24.48
2024-05-09T07:04:26.763Z,24.48
2024-05-09T07:05:26.768Z,24.51
2024-05-09T07:06:26.416Z,24.55
2024-05-09T07:07:26.412Z,24.58
2024-05-09T07:08:26.453Z,24.63
2024-05-09T07:09:26.419Z,24.59
2024-05-09T07:10:32.834Z,24.61
2024-05-09T07:11:26.580Z,24.69
2024-05-09T07:12:26.507Z,24.74
2024-05-09T07:13:26.402Z,24.70
2024-05-09T07:14:26.581Z,24.78
2024-05-09T07:15:26.404Z,24.74
2024-05-09T07:16:26.400Z,24.82
2024-05-09T07:17:26.556Z,24.80
2024-05-09T07:18:26.645Z,24.74
2024-05-09T07:19:26.474Z,24.87
2024-05-09T07:20:32.240Z,24.90
2024-05-09T07:21:26.476Z,24.92
2024-05-09T07:22:26.395Z,24.92
2024-05-09T07:23:26.446Z,24.97
2024-05-09T07:24:26.403Z,24.97
2024-05-09T07:25:26.418Z,25.02
2024-05-09T07:26:26.444Z,25.01
2024-05-09T07:27:26.387Z,25.11
2024-05-09T07:28:26.431Z,25.08
2024-05-09T07:29:26.489Z,25.08
2024-05-09T07:30:32.883Z,25.04
2024-05-09T07:31:26.374Z,25.20
2024-05-09T07:32:26.475Z,25.12
2024-05-09T07:33:26.612Z,25.19
2024-05-09T07:34:26.584Z,25.19
2024-05-09T07:35:26.425Z,25.17
2024-05-09T07:36:26.384Z,25.26
2024-05-09T07:37:26.366Z,25.27
2024-05-09T07:38:26.458Z,25.22
2024-05-09T07:39:26.365Z,25.32
2024-05-09T07:40:33.247Z,25.33
2024-05-09T07:41:26.388Z,25.33
2024-05-09T07:42:26.359Z,25.33
2024-05-09T07:43:26.362Z,25.33
2024-05-09T07:44:26.461Z,25.37
2024-05-09T07:45:43.338Z,25.37
2024-05-09T07:47:14.600Z,25.41
2024-05-09T07:50:00.297Z,25.45
2024-05-09T07:53:39.718Z,25.69
2024-05-09T07:54:26.549Z,25.60
2024-05-09T07:55:26.448Z,25.56
2024-05-09T07:56:26.664Z,25.62
2024-05-09T07:57:26.358Z,25.66
2024-05-09T07:58:26.356Z,25.66
2024-05-09T07:59:26.360Z,25.69
2024-05-09T08:00:31.102Z,25.70
2024-05-09T08:01:26.999Z,25.74
2024-05-09T08:02:26.567Z,25.79
2024-05-09T08:03:26.402Z,25.74
2024-05-09T08:04:26.766Z,25.84
2024-05-09T08:05:26.414Z,25.88
2024-05-09T08:06:26.457Z,25.85
2024-05-09T08:07:26.340Z,25.84
2024-05-09T08:08:26.336Z,25.86
2024-05-09T08:09:26.382Z,25.89
2024-05-09T08:10:28.973Z,25.88
2024-05-09T08:11:26.406Z,25.97
2024-05-09T08:12:26.366Z,26.03
2024-05-09T08:13:26.342Z,26.00
2024-05-09T08:14:26.329Z,26.03
2024-05-09T08:15:26.590Z,26.00
2024-05-09T08:16:26.537Z,26.03
2024-05-09T08:17:26.423Z,25.99
2024-05-09T08:18:26.536Z,26.11
2024-05-09T08:19:26.377Z,26.06
2024-05-09T08:20:31.146Z,26.06
2024-05-09T08:21:26.402Z,26.15
2024-05-09T08:22:26.324Z,26.11
2024-05-09T08:23:26.323Z,26.09
2024-05-09T08:24:26.395Z,26.23
2024-05-09T08:25:26.366Z,26.24
2024-05-09T08:26:26.335Z,26.22
2024-05-09T08:27:26.406Z,26.32
2024-05-09T08:28:26.423Z,26.30
2024-05-09T08:29:26.335Z,26.20
2024-05-09T08:30:33.158Z,26.30
2024-05-09T08:31:26.406Z,26.34
2024-05-09T08:32:26.354Z,26.34
2024-05-09T08:33:26.415Z,26.34
2024-05-09T08:34:26.392Z,26.37
2024-05-09T08:35:26.409Z,26.34
2024-05-09T08:36:26.439Z,26.30
2024-05-09T08:37:30.972Z,26.31
2024-05-09T08:38:26.327Z,26.42
2024-05-09T08:39:26.356Z,26.42
2024-05-09T08:40:33.684Z,26.45
2024-05-09T08:41:26.317Z,26.52
2024-05-09T08:42:26.331Z,26.49
2024-05-09T08:43:26.359Z,26.56
2024-05-09T08:44:26.325Z,26.50
2024-05-09T08:45:26.470Z,26.56
2024-05-09T08:46:26.329Z,26.60
2024-05-09T08:47:26.438Z,26.60
2024-05-09T08:48:26.582Z,26.57
2024-05-09T08:49:26.435Z,26.64
2024-05-09T08:50:32.500Z,26.63
2024-05-09T08:51:26.318Z,26.69
2024-05-09T08:52:26.313Z,26.75
2024-05-09T08:53:26.314Z,26.68
2024-05-09T08:54:26.308Z,26.68
2024-05-09T08:55:26.309Z,26.82
2024-05-09T08:56:26.318Z,26.79
2024-05-09T08:57:26.339Z,26.82
2024-05-09T08:58:26.389Z,26.81
2024-05-09T08:59:26.332Z,26.84
2024-05-09T09:00:34.122Z,26.87
2024-05-09T09:01:26.398Z,26.90
2024-05-09T09:02:26.556Z,27.04
2024-05-09T09:03:26.407Z,26.91
2024-05-09T09:04:26.401Z,26.91
2024-05-09T09:05:26.554Z,27.00
2024-05-09T09:06:26.315Z,26.91
2024-05-09T09:07:26.362Z,26.96
2024-05-09T09:08:26.341Z,27.00
2024-05-09T09:09:26.348Z,27.04
2024-05-09T09:10:31.801Z,26.97
2024-05-09T09:11:26.337Z,27.09
2024-05-09T09:12:26.318Z,27.01
2024-05-09T09:13:26.339Z,27.15
2024-05-09T09:14:26.309Z,27.11
2024-05-09T09:15:26.325Z,27.12
2024-05-09T09:16:26.412Z,27.19
2024-05-09T09:17:26.439Z,27.27
2024-05-09T09:18:26.628Z,27.23
2024-05-09T09:19:26.432Z,27.23
2024-05-09T09:20:33.762Z,27.31
2024-05-09T09:21:26.308Z,27.31
2024-05-09T09:22:26.317Z,27.33
2024-05-09T09:23:26.316Z,27.36
2024-05-09T09:24:26.323Z,27.38
2024-05-09T09:25:26.314Z,27.42
2024-05-09T09:26:26.320Z,27.46
2024-05-09T09:27:26.349Z,27.41
2024-05-09T09:28:26.312Z,27.41
2024-05-09T09:29:26.322Z,27.45
2024-05-09T09:30:34.897Z,27.52
2024-05-09T09:31:26.402Z,27.45
2024-05-09T09:32:26.433Z,27.59
2024-05-09T09:33:26.410Z,27.52
2024-05-09T09:34:26.548Z,27.59
2024-05-09T09:35:26.316Z,27.71
2024-05-09T09:36:26.317Z,27.62
2024-05-09T09:37:26.325Z,27.59
2024-05-09T09:38:26.332Z,27.66
2024-05-09T09:39:26.323Z,27.79
2024-05-09T09:40:31.948Z,27.71
2024-05-09T09:41:26.321Z,27.81
2024-05-09T09:42:26.320Z,27.80
2024-05-09T09:43:26.441Z,27.80
2024-05-09T09:44:26.332Z,27.84
2024-05-09T09:45:26.324Z,27.91
2024-05-09T09:46:26.498Z,27.93
2024-05-09T09:47:26.440Z,27.89
2024-05-09T09:48:26.484Z,27.96
2024-05-09T09:49:26.395Z,28.01
2024-05-09T09:50:33.489Z,28.03
2024-05-09T09:51:26.330Z,28.02
2024-05-09T09:52:26.407Z,28.08
2024-05-09T09:53:26.346Z,28.03
2024-05-09T09:54:26.347Z,28.08
2024-05-09T09:55:26.402Z,28.17
2024-05-09T09:56:26.335Z,28.14
2024-05-09T09:57:26.339Z,28.27
2024-05-09T09:58:26.366Z,28.28
2024-05-09T09:59:26.344Z,28.36
2024-05-09T10:00:32.019Z,28.26
2024-05-09T10:01:26.424Z,28.27
2024-05-09T10:02:26.463Z,28.31
2024-05-09T10:03:26.526Z,28.35
2024-05-09T10:04:26.524Z,28.46
2024-05-09T10:05:26.792Z,28.48
2024-05-09T10:06:26.348Z,28.53
2024-05-09T10:07:26.354Z,28.54
2024-05-09T10:08:26.352Z,28.58
2024-05-09T10:09:26.361Z,28.54
2024-05-09T10:10:31.648Z,28.72
2024-05-09T10:11:26.399Z,28.65
2024-05-09T10:12:26.396Z,28.75
2024-05-09T10:13:26.484Z,28.80
2024-05-09T10:14:26.383Z,28.80
2024-05-09T10:15:26.368Z,28.86
2024-05-09T10:16:26.478Z,28.91
2024-05-09T10:17:26.462Z,28.86
2024-05-09T10:18:29.331Z,28.91
2024-05-09T10:19:26.507Z,28.95
2024-05-09T10:20:30.861Z,29.02
2024-05-09T10:21:26.371Z,29.01
2024-05-09T10:22:26.400Z,29.08
2024-05-09T10:23:26.395Z,29.08
2024-05-09T10:24:26.384Z,29.06
2024-05-09T10:25:26.467Z,29.20
2024-05-09T10:26:26.410Z,29.26
2024-05-09T10:27:26.386Z,29.30
2024-05-09T10:28:26.396Z,29.32
2024-05-09T10:29:26.404Z,29.35
2024-05-09T10:30:33.719Z,29.39
2024-05-09T10:31:26.455Z,29.52
2024-05-09T10:32:26.495Z,29.47
2024-05-09T10:33:26.471Z,29.58
2024-05-09T10:34:26.708Z,29.61
2024-05-09T10:35:26.403Z,29.63
2024-05-09T10:36:26.406Z,29.60
2024-05-09T10:37:26.566Z,29.73
2024-05-09T16:36:50.173Z,29.24
2024-05-09T16:37:50.145Z,29.30
2024-05-09T16:38:50.140Z,29.20
2024-05-09T16:39:50.165Z,29.15
2024-05-09T16:40:50.281Z,29.05
2024-05-09T16:41:50.145Z,29.13
2024-05-09T16:42:50.198Z,29.05
2024-05-09T16:43:50.126Z,28.94
2024-05-09T16:44:50.126Z,28.92
2024-05-09T16:45:50.287Z,28.95
2024-05-09T16:46:50.166Z,28.92
2024-05-09T16:47:50.181Z,28.91
2024-05-09T16:48:50.195Z,28.78
2024-05-09T16:49:50.119Z,28.82
2024-05-09T16:50:50.126Z,28.78
2024-05-09T16:51:50.131Z,28.79
2024-05-09T16:52:50.137Z,28.75
2024-05-09T16:53:50.148Z,28.68
2024-05-09T16:54:50.238Z,28.68
2024-05-09T16:55:50.197Z,28.72
2024-05-09T16:56:50.181Z,28.64
2024-05-09T16:57:50.189Z,28.63
2024-05-09T16:58:50.126Z,28.64
2024-05-09T16:59:50.128Z,28.60
2024-05-09T17:00:50.422Z,28.55
2024-05-09T17:01:50.164Z,28.48
2024-05-09T17:02:50.164Z,28.49
2024-05-09T17:03:50.428Z,28.49
2024-05-09T17:04:50.159Z,28.41
2024-05-09T17:05:50.384Z,28.35
2024-05-09T17:06:50.147Z,28.38
2024-05-09T17:07:50.136Z,28.33
2024-05-09T17:08:50.144Z,28.31
2024-05-09T17:09:50.198Z,28.26
2024-05-09T17:10:50.489Z,28.27
2024-05-09T17:11:50.242Z,28.24
2024-05-09T17:12:50.229Z,28.36
2024-05-09T17:13:50.127Z,28.30
2024-05-09T17:14:50.124Z,28.16
2024-05-09T17:15:50.476Z,28.14
2024-05-09T17:16:50.179Z,28.20
2024-05-09T17:17:50.219Z,28.06
2024-05-09T17:18:50.211Z,28.03
2024-05-09T17:19:50.119Z,27.96
2024-05-09T17:20:50.157Z,28.05
2024-05-09T17:21:50.161Z,28.01
2024-05-09T17:22:50.154Z,28.02
2024-05-09T17:23:50.141Z,28.06
2024-05-09T17:24:50.257Z,28.02
2024-05-09T17:25:50.135Z,27.99
2024-05-09T17:26:50.145Z,28.02
2024-05-09T17:27:50.218Z,27.99
2024-05-09T17:28:50.127Z,27.91
2024-05-09T17:29:50.138Z,27.86
2024-05-09T17:30:50.212Z,27.86
2024-05-09T17:31:50.141Z,27.86
2024-05-09T17:32:50.220Z,27.84
2024-05-09T17:33:50.328Z,27.83
2024-05-09T17:34:50.218Z,27.79
2024-05-09T17:35:50.171Z,27.72
2024-05-09T17:36:50.143Z,27.74
2024-05-09T17:37:50.136Z,27.71
2024-05-09T17:38:50.124Z,27.75
2024-05-09T17:39:50.195Z,27.71
2024-05-09T17:40:50.180Z,27.57
2024-05-09T17:41:50.123Z,27.57
2024-05-09T17:42:50.153Z,27.64
2024-05-09T17:43:50.128Z,27.64
2024-05-09T17:44:50.123Z,27.57
2024-05-09T17:45:50.229Z,27.57
2024-05-09T17:46:50.132Z,27.52
2024-05-09T17:47:50.211Z,27.49
2024-05-09T17:48:50.173Z,27.52
2024-05-09T17:49:50.219Z,27.51
2024-05-09T17:50:50.128Z,27.43
2024-05-09T17:51:50.180Z,27.38
2024-05-09T17:52:50.178Z,27.51
2024-05-09T17:53:50.138Z,27.38
2024-05-09T17:54:50.176Z,27.41
2024-05-09T17:55:50.143Z,27.38
2024-05-09T17:56:50.242Z,27.43
2024-05-09T17:57:50.249Z,27.31
2024-05-09T17:58:50.143Z,27.26
2024-05-09T17:59:50.123Z,27.33
2024-05-09T18:00:50.369Z,27.30
2024-05-09T18:01:50.177Z,27.34
2024-05-09T18:02:50.250Z,27.26
2024-05-09T18:03:50.362Z,27.27
2024-05-09T18:04:50.223Z,27.21
2024-05-09T18:05:50.346Z,27.21
2024-05-09T18:06:50.155Z,27.23
2024-05-09T18:07:50.118Z,27.12
2024-05-09T18:08:50.134Z,27.16
2024-05-09T18:09:50.193Z,27.11
2024-05-09T18:10:51.427Z,27.08
2024-05-09T18:11:50.246Z,27.04
2024-05-09T18:12:50.288Z,27.06
2024-05-09T18:13:50.118Z,27.04
2024-05-09T18:14:50.129Z,27.04
2024-05-09T18:15:50.161Z,27.01
2024-05-09T18:16:50.112Z,26.97
2024-05-09T18:17:50.243Z,26.96
2024-05-09T18:18:50.326Z,26.89
2024-05-09T18:19:50.175Z,26.84
2024-05-09T18:20:50.250Z,26.91
2024-05-09T18:21:50.155Z,26.87
2024-05-09T18:22:50.142Z,26.78
2024-05-09T18:23:50.129Z,26.82
2024-05-09T18:24:50.143Z,26.74
2024-05-09T18:25:50.116Z,26.71
2024-05-09T18:26:50.135Z,26.60
2024-05-09T18:27:50.182Z,26.69
2024-05-09T18:28:50.420Z,26.68
2024-05-09T18:29:50.113Z,26.61
2024-05-09T18:30:50.137Z,26.60
2024-05-09T18:31:50.105Z,26.57
2024-05-09T18:32:50.224Z,26.61
2024-05-09T18:33:50.322Z,26.56
2024-05-09T18:34:50.272Z,26.53
2024-05-09T18:35:50.103Z,26.53
2024-05-09T18:36:50.133Z,26.53
2024-05-09T18:37:50.124Z,26.47
2024-05-09T18:38:50.107Z,26.44
2024-05-09T18:39:50.122Z,26.39
2024-05-09T18:40:50.251Z,26.39
2024-05-09T18:41:50.094Z,26.30
2024-05-09T18:42:50.108Z,26.42
2024-05-09T18:43:51.035Z,26.35
2024-05-09T18:44:50.090Z,26.32
2024-05-09T18:45:50.103Z,26.32
2024-05-09T18:46:50.083Z,26.24
2024-05-09T18:47:50.153Z,26.23
2024-05-09T18:48:50.410Z,26.35
2024-05-09T18:49:50.129Z,26.32
2024-05-09T18:50:50.209Z,26.26
2024-05-09T18:51:50.167Z,26.15
2024-05-09T18:52:50.105Z,26.07
2024-05-09T18:53:50.130Z,26.15
2024-05-09T18:54:50.119Z,26.15
2024-05-09T18:55:50.090Z,26.09
2024-05-09T18:56:50.087Z,26.09
2024-05-09T18:57:50.113Z,25.99
2024-05-09T18:58:50.087Z,25.97
2024-05-09T18:59:50.066Z,25.97
2024-05-09T19:00:52.076Z,25.99
2024-05-09T19:01:50.156Z,25.93
2024-05-09T19:02:50.377Z,25.93
2024-05-09T19:03:50.251Z,25.94
2024-05-09T19:04:50.258Z,25.93
2024-05-09T19:05:50.245Z,25.85
2024-05-09T19:06:50.118Z,25.89
2024-05-09T19:07:50.117Z,25.76